createdAt,value
2023-05-10T00:01:28.811Z,12.3
2023-05-10T00:05:39.768Z,12.3
2023-05-10T00:07:43.601Z,12.3
2023-05-10T00:09:47.413Z,12.3
2023-05-10T00:11:51.293Z,12.3
2023-05-10T00:38:47.709Z,12.3
2023-05-10T00:41:06.765Z,12.3
2023-05-10T00:43:10.607Z,12.3
2023-05-10T00:45:14.431Z,12.3
2023-05-10T00:47:21.608Z,12.3
2023-05-10T00:49:25.388Z,12.3
2023-05-10T00:53:33.047Z,12.3
2023-05-10T00:55:36.899Z,12.3
2023-05-10T00:57:40.699Z,12.3
2023-05-10T00:59:44.497Z,12.3
2023-05-10T01:01:51.655Z,12.4
2023-05-10T01:03:55.432Z,12.4
2023-05-10T01:05:59.266Z,12.4
2023-05-10T01:08:03.113Z,12.3
2023-05-10T01:10:06.964Z,12.3
2023-05-10T01:14:14.634Z,12.4
2023-05-10T01:16:21.762Z,12.4
2023-05-10T01:18:25.583Z,12.4
2023-05-10T01:30:51.884Z,12.4
2023-05-10T01:32:55.754Z,12.4
2023-05-10T01:34:59.548Z,12.4
2023-05-10T01:36:03.129Z,12.4
2023-05-10T01:38:06.961Z,12.4
2023-05-10T01:40:10.771Z,12.4
2023-05-10T01:42:14.601Z,12.4
2023-05-10T01:44:21.715Z,12.4
2023-05-10T01:48:29.372Z,12.4
2023-05-10T01:58:51.857Z,12.5
2023-05-10T02:05:03.360Z,12.5
2023-05-10T02:25:45.039Z,12.5
2023-05-10T02:27:52.151Z,12.5
2023-05-10T02:29:56.000Z,12.6
2023-05-10T02:31:59.886Z,12.6
2023-05-10T02:33:03.475Z,12.6
2023-05-10T02:37:11.067Z,12.6
2023-05-10T02:39:14.913Z,12.6
2023-05-10T02:41:22.028Z,12.6
2023-05-10T02:43:25.858Z,12.6
2023-05-10T02:45:29.701Z,12.6
2023-05-10T02:47:33.647Z,12.6
2023-05-10T02:49:37.355Z,12.6
2023-05-10T02:51:41.209Z,12.6
2023-05-10T02:53:45.060Z,12.6
2023-05-10T03:02:03.660Z,12.6
2023-05-10T03:08:15.182Z,12.6
2023-05-10T03:12:26.721Z,12.6
2023-05-10T03:16:34.400Z,12.6
2023-05-10T03:18:38.233Z,12.5
2023-05-10T03:20:42.041Z,12.6
2023-05-10T03:22:45.888Z,12.6
2023-05-10T03:24:52.968Z,12.6
2023-05-10T03:26:56.829Z,12.5
2023-05-10T03:29:02.335Z,12.5
2023-05-10T03:30:05.844Z,12.6
2023-05-10T03:42:32.137Z,12.6
2023-05-10T03:44:35.999Z,12.6
2023-05-10T03:46:39.846Z,12.6
2023-05-10T03:50:47.506Z,12.6
2023-05-10T03:52:54.947Z,12.6
2023-05-10T03:54:58.452Z,12.6
2023-05-10T03:57:02.295Z,12.6
2023-05-10T03:59:06.123Z,12.6
2023-05-10T04:01:09.988Z,12.6
2023-05-10T04:03:13.885Z,12.6
2023-05-10T04:05:17.627Z,12.6
2023-05-10T04:07:24.777Z,12.6
2023-05-10T04:09:28.593Z,12.6
2023-05-10T04:13:36.270Z,12.6
2023-05-10T04:15:40.101Z,12.6
2023-05-10T04:17:44.013Z,12.5
2023-05-10T04:19:47.773Z,12.5
2023-05-10T04:21:54.900Z,12.5
2023-05-10T04:34:42.314Z,12.5
2023-05-10T04:36:46.146Z,12.5
2023-05-10T04:38:50.002Z,12.6
2023-05-10T04:40:53.799Z,12.5
2023-05-10T04:42:57.634Z,12.6
2023-05-10T04:45:01.490Z,12.5
2023-05-10T04:47:05.311Z,12.6
2023-05-10T04:49:12.443Z,12.5
2023-05-10T04:51:16.285Z,12.5
2023-05-10T04:53:20.090Z,12.5
2023-05-10T04:55:23.958Z,12.5
2023-05-10T04:57:27.771Z,12.4
2023-05-10T04:59:31.623Z,12.4
2023-05-10T05:01:35.501Z,12.4
2023-05-10T05:03:42.665Z,12.4
2023-05-10T05:05:46.394Z,12.3
2023-05-10T05:09:54.087Z,12.4
2023-05-10T05:11:57.922Z,12.3
2023-05-10T05:14:01.775Z,12.4
2023-05-10T05:16:05.596Z,12.3
2023-05-10T05:23:23.914Z,12.3
2023-05-10T05:29:35.418Z,12.3
2023-05-10T05:39:57.869Z,12.4
2023-05-10T05:42:01.731Z,12.4
2023-05-10T05:46:12.682Z,12.4
2023-05-10T05:48:16.489Z,12.4
2023-05-10T05:50:20.359Z,12.4
2023-05-10T05:52:24.168Z,12.5
2023-05-10T05:54:28.010Z,12.4
2023-05-10T05:58:35.675Z,12.4
2023-05-10T06:00:42.770Z,12.5
2023-05-10T06:06:54.307Z,12.6
2023-05-10T06:11:01.983Z,12.5
2023-05-10T06:13:05.842Z,12.5
2023-05-10T06:15:12.970Z,12.5
2023-05-10T06:17:16.745Z,12.5
2023-05-10T06:20:24.106Z,12.5
2023-05-10T06:22:27.976Z,12.6
2023-05-10T06:24:31.793Z,12.5
2023-05-10T06:26:35.650Z,12.5
2023-05-10T06:36:58.089Z,12.5
2023-05-10T06:41:05.737Z,12.5
2023-05-10T07:10:06.004Z,12.4
2023-05-10T07:12:14.991Z,12.4
2023-05-10T07:14:16.952Z,12.5
2023-05-10T07:16:20.827Z,12.4
2023-05-10T07:17:24.391Z,12.4
2023-05-10T07:19:28.183Z,12.5
2023-05-10T07:25:42.952Z,12.4
2023-05-10T07:27:46.774Z,12.4
2023-05-10T07:29:50.625Z,12.3
2023-05-10T07:31:55.400Z,12.3
2023-05-10T07:33:58.307Z,12.3
2023-05-10T07:38:05.950Z,12.4
2023-05-10T07:40:13.076Z,12.8
2023-05-10T07:44:20.744Z,12.9
2023-05-10T07:48:28.417Z,13
2023-05-10T07:50:32.242Z,13
2023-05-10T07:52:36.068Z,13.2
2023-05-10T07:56:47.039Z,13.5
2023-05-10T08:00:54.726Z,13.7
2023-05-10T08:02:59.043Z,13.7
2023-05-10T08:05:02.387Z,13.6
2023-05-10T08:07:06.244Z,13.6
2023-05-10T08:09:13.390Z,13.8
2023-05-10T08:11:17.187Z,13.8
2023-05-10T08:22:06.238Z,13.7
2023-05-10T08:36:36.338Z,13.9
2023-05-10T08:44:51.645Z,13.9
2023-05-10T08:46:55.562Z,14
2023-05-10T08:48:59.319Z,13.9
2023-05-10T08:51:06.432Z,13.9
2023-05-10T08:53:10.244Z,13.9
2023-05-10T08:55:14.090Z,13.8
2023-05-10T09:01:25.694Z,13.6
2023-05-10T09:03:29.384Z,13.5
2023-05-10T09:05:36.514Z,13.3
2023-05-10T09:09:44.173Z,13.2
2023-05-10T09:10:47.731Z,13.2
2023-05-10T09:12:51.557Z,13.2
2023-05-10T09:14:55.438Z,13.1
2023-05-10T09:16:59.252Z,13.1
2023-05-10T09:19:06.394Z,13.3
2023-05-10T09:21:10.202Z,13.3
2023-05-10T09:23:14.026Z,13.4
2023-05-10T09:27:21.683Z,13.3
2023-05-10T09:29:27.121Z,13.3
2023-05-10T09:31:30.968Z,13.3
2023-05-10T09:33:38.045Z,13.3
2023-05-10T09:35:41.863Z,13.3
2023-05-10T09:37:45.714Z,13.3
2023-05-10T09:39:49.535Z,13.3
2023-05-10T09:41:53.354Z,13.3
2023-05-10T09:43:57.206Z,13.2
2023-05-10T09:48:08.296Z,13.4
2023-05-10T09:52:15.820Z,13.6
2023-05-10T09:54:19.659Z,13.7
2023-05-10T09:56:23.492Z,13.8
2023-05-10T09:58:27.331Z,14
2023-05-10T10:00:31.143Z,14.2
2023-05-10T10:02:38.320Z,14.2
2023-05-10T10:04:42.159Z,14.1
2023-05-10T10:07:49.460Z,14.4
2023-05-10T10:11:57.144Z,14.4
2023-05-10T10:14:00.987Z,14.3
2023-05-10T10:16:08.250Z,14.6
2023-05-10T10:18:11.905Z,14.6
2023-05-10T10:28:31.034Z,15.5
2023-05-10T10:30:38.153Z,15.4
2023-05-10T10:32:42.011Z,15.2
2023-05-10T10:34:45.815Z,15.2
2023-05-10T10:36:49.638Z,15.2
2023-05-10T10:38:53.439Z,15.2
2023-05-10T10:40:57.254Z,15.2
2023-05-10T10:43:01.053Z,15.1
2023-05-10T10:45:08.188Z,14.9
2023-05-10T10:47:12.036Z,14.8
2023-05-10T10:49:15.786Z,14.8
2023-05-10T10:51:19.647Z,14.8
2023-05-10T10:53:23.515Z,14.8
2023-05-10T10:55:27.296Z,14.9
2023-05-10T10:57:31.094Z,14.9
2023-05-10T10:59:38.155Z,15
2023-05-10T11:01:41.991Z,15
2023-05-10T11:03:45.930Z,14.8
2023-05-10T11:04:49.412Z,14.7
2023-05-10T11:21:23.294Z,15.1
2023-05-10T11:23:27.096Z,15.2
2023-05-10T11:25:30.949Z,15.4
2023-05-10T11:27:38.029Z,15.5
2023-05-10T11:31:45.686Z,15.6
2023-05-10T11:46:15.811Z,16.9
2023-05-10T11:54:31.056Z,16.5
2023-05-10T12:00:45.770Z,16.6
2023-05-10T12:13:26.927Z,16.2
2023-05-10T12:15:30.708Z,16.1
2023-05-10T12:23:49.246Z,16.2
2023-05-10T12:25:53.021Z,16.2
2023-05-10T12:32:04.510Z,15.9
2023-05-10T12:34:08.290Z,15.7
2023-05-10T12:36:12.100Z,15.7
2023-05-10T12:38:19.177Z,15.6
2023-05-10T12:40:23.010Z,15.6
2023-05-10T12:42:26.832Z,15.6
2023-05-10T12:44:30.656Z,15.6
2023-05-10T12:46:34.573Z,15.5
2023-05-10T12:48:38.884Z,15.5
2023-05-10T12:50:42.702Z,15.5
2023-05-10T12:54:53.641Z,15.5
2023-05-10T12:56:57.480Z,15.5
2023-05-10T12:58:01.038Z,15.5
2023-05-10T13:02:08.665Z,15.5
2023-05-10T13:04:12.531Z,15.5
2023-05-10T13:06:19.559Z,15.6
2023-05-10T13:08:23.406Z,15.6
2023-05-10T13:10:27.226Z,15.6
2023-05-10T13:14:34.872Z,15.8
2023-05-10T13:16:38.765Z,16
2023-05-10T13:18:42.635Z,15.9
2023-05-10T13:20:49.609Z,16.3
2023-05-10T13:22:53.434Z,16.3
2023-05-10T13:24:57.257Z,16.5
2023-05-10T13:27:01.080Z,16.6
2023-05-10T13:33:12.561Z,16.8
2023-05-10T13:49:49.694Z,16.6
2023-05-10T13:53:57.351Z,16.6
2023-05-10T14:09:30.903Z,16.4
2023-05-10T14:11:34.714Z,16.5
2023-05-10T14:24:00.924Z,17.1
2023-05-10T14:28:08.561Z,17.5
2023-05-10T14:30:12.343Z,17.8
2023-05-10T14:32:19.628Z,17.5
2023-05-10T14:42:38.417Z,17
2023-05-10T14:44:42.257Z,17
2023-05-10T14:46:49.324Z,16.9
2023-05-10T14:48:53.140Z,17
2023-05-10T14:52:00.489Z,17
2023-05-10T14:54:04.263Z,17
2023-05-10T14:56:08.070Z,16.9
2023-05-10T14:58:11.842Z,17
2023-05-10T15:00:19.116Z,16.8
2023-05-10T15:02:22.743Z,16.6
2023-05-10T15:04:28.399Z,16.6
2023-05-10T15:10:37.881Z,16.4
2023-05-10T15:12:41.671Z,16.3
2023-05-10T15:14:48.759Z,16.2
2023-05-10T15:21:00.236Z,16.1
2023-05-10T15:23:03.999Z,15.9
2023-05-10T15:25:07.810Z,15.9
2023-05-10T15:29:20.306Z,15.7
2023-05-10T15:31:24.176Z,15.7
2023-05-10T15:33:27.939Z,15.7
2023-05-10T15:35:31.783Z,15.6
2023-05-10T15:37:35.587Z,15.4
2023-05-10T15:39:39.413Z,15.2
2023-05-10T15:41:43.211Z,15
2023-05-10T15:43:50.334Z,14.4
2023-05-10T15:45:54.155Z,14.2
2023-05-10T15:54:29.917Z,13.9
2023-05-10T15:56:37.014Z,13.9
2023-05-10T16:00:44.704Z,13.9
2023-05-10T16:02:48.608Z,13.9
2023-05-10T16:04:52.343Z,13.9
2023-05-10T16:13:10.989Z,13.9
2023-05-10T16:15:15.142Z,13.9
2023-05-10T16:17:18.782Z,13.9
2023-05-10T16:21:26.355Z,14
2023-05-10T16:23:30.229Z,14
2023-05-10T16:25:37.288Z,14.1
2023-05-10T16:27:41.147Z,14.1
2023-05-10T16:29:44.979Z,14.2
2023-05-10T16:33:52.650Z,14.4
2023-05-10T16:35:56.608Z,14.4
2023-05-10T16:38:00.309Z,14.5
2023-05-10T16:40:07.437Z,14.5
2023-05-10T16:42:11.288Z,14.6
2023-05-10T16:44:15.097Z,14.6
2023-05-10T16:45:18.816Z,14.6
2023-05-10T16:55:41.132Z,14.5
2023-05-10T16:59:48.820Z,14.5
2023-05-10T17:01:52.637Z,14.5
2023-05-10T17:03:56.556Z,14.6
2023-05-10T17:06:00.280Z,14.6
2023-05-10T17:10:11.253Z,14.6
2023-05-10T17:12:15.080Z,14.6
2023-05-10T17:14:18.921Z,14.7
2023-05-10T17:18:26.745Z,14.6
2023-05-10T17:20:30.422Z,14.5
2023-05-10T17:37:07.618Z,14.6
2023-05-10T17:39:11.476Z,14.6
2023-05-10T17:41:15.308Z,14.5
2023-05-10T17:56:48.952Z,14.3
2023-05-10T18:03:00.476Z,14.3
2023-05-10T18:07:11.386Z,14.3
2023-05-10T18:09:15.222Z,14.3
2023-05-10T18:15:26.726Z,14.2
2023-05-10T18:19:37.669Z,14.1
2023-05-10T18:21:41.510Z,14.1
2023-05-10T18:23:45.349Z,14.1
2023-05-10T18:25:49.185Z,14
2023-05-10T18:27:53.005Z,13.9
2023-05-10T18:29:56.873Z,13.9
2023-05-10T18:32:00.708Z,13.9
2023-05-10T18:34:07.824Z,13.8
2023-05-10T18:36:11.649Z,13.8
2023-05-10T18:38:15.524Z,13.8
2023-05-10T18:53:49.227Z,13.6
2023-05-10T19:02:07.897Z,13.4
2023-05-10T19:04:11.738Z,13.3
2023-05-10T19:08:19.355Z,13.3
2023-05-10T19:10:23.179Z,13.2
2023-05-10T19:12:26.998Z,13.2
2023-05-10T19:16:38.040Z,13.1
2023-05-10T19:18:42.665Z,13
2023-05-10T19:20:45.682Z,13
2023-05-10T19:24:53.309Z,12.9
2023-05-10T19:26:57.165Z,12.9
2023-05-10T19:33:12.004Z,12.8
2023-05-10T19:35:16.068Z,12.8
2023-05-10T19:37:34.612Z,12.8
2023-05-10T19:39:38.432Z,12.8
2023-05-10T19:41:42.288Z,12.8
2023-05-10T19:45:53.257Z,12.8
2023-05-10T19:47:57.161Z,12.8
2023-05-10T19:50:01.023Z,12.8
2023-05-10T19:52:04.774Z,12.9
2023-05-10T19:54:08.601Z,12.9
2023-05-10T19:56:12.433Z,12.9
2023-05-10T19:58:19.588Z,12.9
2023-05-10T20:00:23.423Z,12.9
2023-05-10T20:02:27.271Z,13
2023-05-10T20:04:31.064Z,12.9
2023-05-10T20:08:38.757Z,13
2023-05-10T20:10:42.584Z,13
2023-05-10T20:12:49.719Z,13.1
2023-05-10T20:14:53.555Z,13
2023-05-10T20:23:08.911Z,13
2023-05-10T20:25:12.761Z,13
2023-05-10T20:31:27.549Z,13
2023-05-10T20:32:31.087Z,13.1
2023-05-10T20:34:34.926Z,13
2023-05-10T20:38:42.622Z,13
2023-05-10T20:42:53.580Z,13
2023-05-10T20:44:57.424Z,13.1
2023-05-10T20:47:01.243Z,13
2023-05-10T20:49:05.105Z,13.1
2023-05-10T20:53:12.750Z,13.1
2023-05-10T20:55:19.894Z,13.1
2023-05-10T20:57:23.731Z,13.1
2023-05-10T20:59:27.562Z,13.1
2023-05-10T21:03:35.248Z,13.1
2023-05-10T21:05:39.076Z,13
2023-05-10T21:07:42.928Z,13
2023-05-10T21:11:53.894Z,13
2023-05-10T21:20:09.255Z,13
2023-05-10T21:22:13.068Z,13.1
2023-05-10T21:24:21.834Z,13
2023-05-10T21:28:29.470Z,13
2023-05-10T21:29:33.039Z,13
2023-05-10T21:31:36.932Z,12.9
2023-05-10T21:33:40.729Z,12.9
2023-05-10T21:35:44.574Z,12.9
2023-05-10T21:37:51.664Z,12.9
2023-05-10T21:39:55.504Z,12.9
2023-05-10T21:41:59.334Z,12.9
2023-05-10T21:44:03.168Z,12.9
2023-05-10T21:46:07.095Z,12.8
2023-05-10T21:48:10.897Z,12.9
2023-05-10T21:50:14.699Z,12.9
2023-05-10T21:52:21.815Z,12.8
2023-05-10T21:54:25.672Z,12.8
2023-05-10T21:56:29.493Z,12.8
2023-05-10T21:58:33.331Z,12.8
2023-05-10T22:00:37.173Z,12.7
2023-05-10T22:02:41.095Z,12.7
2023-05-10T22:04:44.851Z,12.7
2023-05-10T22:06:51.971Z,12.6
2023-05-10T22:08:55.802Z,12.5
2023-05-10T22:10:59.636Z,12.6
2023-05-10T22:13:03.466Z,12.5
2023-05-10T22:17:11.233Z,12.5
2023-05-10T22:21:22.083Z,12.3
2023-05-10T22:23:25.932Z,12.3
2023-05-10T22:25:29.771Z,12.4
2023-05-10T22:26:33.308Z,12.4
2023-05-10T22:28:37.208Z,12.4
2023-05-10T22:30:40.994Z,12.4
2023-05-10T22:32:44.905Z,12.4
2023-05-10T22:34:51.959Z,12.5
2023-05-10T22:36:55.789Z,12.4
2023-05-10T22:43:07.302Z,12.4
2023-05-10T22:47:15.015Z,12.3
2023-05-10T22:49:22.106Z,12.4
2023-05-10T22:51:25.960Z,12.3
2023-05-10T22:53:29.800Z,12.3
2023-05-10T22:57:37.486Z,12.3
2023-05-10T22:59:41.272Z,12.3
2023-05-10T23:01:45.167Z,12.3
2023-05-10T23:03:52.276Z,12.3
2023-05-10T23:05:56.108Z,12.3
2023-05-10T23:07:59.966Z,12.3
2023-05-10T23:12:07.588Z,12.2
2023-05-10T23:18:22.389Z,12.2
2023-05-10T23:22:30.036Z,12.2
2023-05-10T23:26:58.422Z,12.3
2023-05-10T23:29:02.250Z,12.3
2023-05-10T23:33:13.263Z,12.3
2023-05-10T23:37:20.952Z,12.3
2023-05-10T23:39:24.756Z,12.3
2023-05-10T23:41:28.618Z,12.3
2023-05-10T23:45:39.659Z,12.3
2023-05-10T23:49:47.258Z,12.3
2023-05-10T23:53:54.934Z,12.3
2023-05-10T23:55:58.768Z,12.3
